Time;durP1;ratioP1;P1;durP2;ratioP2;P2;SDS_P1;SDS_P2;PMS_P1;PMS_P2;Temp;Humidity;BMP_temperature;BMP_pressure;BME280_temperature;BME280_humidity;BME280_pressure;Samples;Min_cycle;Max_cycle;Signal;HPM_P1;HPM_P2
2022/04/30 00:00:29;;;;;;;14.77;8.82;;;7.20;99.90;;;;;;5097556;28;20048;-79
2022/04/30 00:02:59;;;;;;;15.20;8.98;;;7.20;99.90;;;;;;5093697;28;20372;-79
2022/04/30 00:05:25;;;;;;;14.80;9.10;;;7.20;99.90;;;;;;5101655;28;20050;-79
2022/04/30 00:07:51;;;;;;;14.02;9.43;;;7.20;99.90;;;;;;5092002;28;20043;-79
2022/04/30 00:10:17;;;;;;;15.27;9.18;;;7.20;99.90;;;;;;5100360;28;20039;-79
2022/04/30 00:12:42;;;;;;;16.73;9.40;;;7.20;99.90;;;;;;5087673;28;20201;-79
2022/04/30 00:15:09;;;;;;;16.10;9.45;;;7.10;99.90;;;;;;5096664;28;20032;-79
2022/04/30 00:17:35;;;;;;;13.68;9.57;;;7.20;99.90;;;;;;5092282;28;20058;-80
2022/04/30 00:20:04;;;;;;;14.35;9.25;;;7.10;99.90;;;;;;5095529;28;20079;-79
2022/04/30 00:22:29;;;;;;;11.07;8.98;;;7.20;99.90;;;;;;5090076;28;20043;-80
2022/04/30 00:24:55;;;;;;;17.58;9.70;;;7.20;99.90;;;;;;5095612;28;20066;-79
2022/04/30 00:27:21;;;;;;;17.95;9.75;;;7.20;99.90;;;;;;5094421;28;20101;-79
2022/04/30 00:29:46;;;;;;;14.30;9.68;;;7.20;99.90;;;;;;5090046;28;20126;-79
2022/04/30 00:32:13;;;;;;;16.60;9.85;;;7.10;99.90;;;;;;5099002;28;20058;-79
2022/04/30 00:34:38;;;;;;;16.02;10.32;;;7.10;99.90;;;;;;5102982;28;20538;-79
2022/04/30 00:37:04;;;;;;;14.10;10.07;;;7.10;99.90;;;;;;5091162;28;20158;-79
2022/04/30 00:39:34;;;;;;;16.83;10.18;;;7.00;99.90;;;;;;5099336;28;20109;-79
2022/04/30 00:42:00;;;;;;;18.45;10.55;;;7.00;99.90;;;;;;5097923;28;20046;-79
2022/04/30 00:44:25;;;;;;;16.48;10.35;;;6.90;99.90;;;;;;5092468;28;20036;-79
2022/04/30 00:46:51;;;;;;;15.82;10.20;;;6.90;99.90;;;;;;5086221;28;20470;-80
2022/04/30 00:49:17;;;;;;;14.43;10.63;;;6.90;99.90;;;;;;5094463;28;20380;-79
2022/04/30 00:51:43;;;;;;;14.68;9.60;;;7.00;99.90;;;;;;5094979;28;20040;-79
2022/04/30 00:54:12;;;;;;;16.80;10.67;;;6.90;99.90;;;;;;5095217;28;20398;-79
2022/04/30 00:56:49;;;;;;;16.65;10.13;;;6.90;99.90;;;;;;5110092;27;20051;-79
2022/04/30 00:59:19;;;;;;;15.63;10.15;;;6.90;99.90;;;;;;5101819;27;20054;-79
2022/04/30 01:01:48;;;;;;;16.63;10.27;;;6.90;99.90;;;;;;5098622;28;20044;-79
2022/04/30 01:04:15;;;;;;;13.68;10.57;;;6.80;99.90;;;;;;5100023;28;20047;-79
2022/04/30 01:06:56;;;;;;;17.45;10.50;;;6.80;99.90;;;;;;5092190;28;20395;-78
2022/04/30 01:09:29;;;;;;;14.63;10.18;;;6.80;99.90;;;;;;5103008;27;20064;-79
2022/04/30 01:12:04;;;;;;;17.55;10.60;;;6.70;99.90;;;;;;5096097;28;20031;-79
2022/04/30 01:14:34;;;;;;;14.82;9.88;;;6.80;99.90;;;;;;5102949;27;20047;-78
2022/04/30 01:17:05;;;;;;;16.63;10.82;;;6.80;99.90;;;;;;5093064;28;20047;-79
2022/04/30 01:19:33;;;;;;;20.25;11.05;;;6.70;99.90;;;;;;5101871;28;20864;-79
2022/04/30 01:22:01;;;;;;;16.27;10.10;;;6.70;99.90;;;;;;5098646;27;20051;-79
2022/04/30 01:24:30;;;;;;;18.17;10.77;;;6.70;99.90;;;;;;5096508;27;20197;-79
2022/04/30 01:26:57;;;;;;;16.00;10.40;;;6.60;99.90;;;;;;5107765;28;20043;-79
2022/04/30 01:29:24;;;;;;;15.55;10.02;;;6.60;99.90;;;;;;5094410;27;20054;-79
2022/04/30 01:37:27;;;;;;;15.60;10.70;;;6.40;99.90;;;;;;5091215;28;20048;-79
2022/04/30 01:39:56;;;;;;;18.17;10.35;;;6.40;99.90;;;;;;5095131;27;20077;-79
2022/04/30 01:42:22;;;;;;;16.38;9.43;;;6.30;99.90;;;;;;5090993;27;20059;-79
2022/04/30 01:44:48;;;;;;;15.13;9.88;;;6.30;99.90;;;;;;5098326;28;20081;-79
2022/04/30 01:47:19;;;;;;;16.35;10.55;;;6.30;99.90;;;;;;5108326;28;20135;-79
2022/04/30 01:49:44;;;;;;;13.88;10.43;;;6.30;99.90;;;;;;5102658;27;20485;-79
2022/04/30 01:52:13;;;;;;;14.57;9.98;;;6.20;99.90;;;;;;5108021;28;20122;-78
2022/04/30 01:54:39;;;;;;;13.18;8.80;;;6.20;99.90;;;;;;5101189;27;20044;-78
2022/04/30 01:57:05;;;;;;;16.02;10.82;;;6.20;99.90;;;;;;5105993;28;20099;-81
2022/04/30 01:59:31;;;;;;;16.08;10.40;;;6.10;99.90;;;;;;5096259;27;20044;-79
2022/04/30 02:01:59;;;;;;;15.70;10.32;;;6.10;99.90;;;;;;5100579;28;20506;-79
2022/04/30 02:04:25;;;;;;;15.10;10.93;;;6.00;99.90;;;;;;5103043;27;20042;-79
2022/04/30 02:06:51;;;;;;;14.63;11.05;;;6.00;99.90;;;;;;5098606;27;20089;-78
2022/04/30 02:09:18;;;;;;;17.40;10.85;;;6.00;99.90;;;;;;5097605;28;20032;-79
2022/04/30 02:11:44;;;;;;;14.30;11.00;;;6.00;99.90;;;;;;5105064;27;20050;-79
2022/04/30 02:14:17;;;;;;;13.55;10.50;;;6.00;99.90;;;;;;5098218;28;20043;-79
2022/04/30 02:16:45;;;;;;;14.93;11.45;;;6.00;99.90;;;;;;5095604;27;20089;-79
2022/04/30 02:19:11;;;;;;;16.02;11.13;;;5.90;99.90;;;;;;5098886;28;20542;-79
2022/04/30 02:21:37;;;;;;;18.48;10.23;;;5.90;99.90;;;;;;5111842;27;20043;-79
2022/04/30 02:24:03;;;;;;;15.40;11.00;;;5.90;99.90;;;;;;5102705;28;20046;-79
2022/04/30 02:26:29;;;;;;;15.38;10.98;;;5.80;99.90;;;;;;5104574;28;20417;-79
2022/04/30 02:28:57;;;;;;;15.98;10.68;;;5.80;99.90;;;;;;5106573;27;20491;-79
2022/04/30 02:31:27;;;;;;;15.07;10.98;;;5.70;99.90;;;;;;5088614;27;20048;-79
2022/04/30 02:33:56;;;;;;;16.48;11.10;;;5.70;99.90;;;;;;5092410;27;20047;-79
2022/04/30 02:36:26;;;;;;;17.63;10.93;;;5.70;99.90;;;;;;5090269;28;20036;-79
2022/04/30 02:38:54;;;;;;;13.98;10.63;;;5.70;99.90;;;;;;5103234;28;20410;-79
2022/04/30 02:41:21;;;;;;;14.20;11.65;;;5.70;99.90;;;;;;5109901;28;20077;-79
2022/04/30 02:43:54;;;;;;;18.25;10.85;;;5.70;99.90;;;;;;5104154;28;20498;-79
2022/04/30 02:46:20;;;;;;;14.88;11.25;;;5.80;99.90;;;;;;5106970;28;20151;-79
2022/04/30 02:48:47;;;;;;;17.40;12.02;;;5.70;99.90;;;;;;5122788;28;20051;-78
2022/04/30 02:51:15;;;;;;;16.90;11.23;;;5.70;99.90;;;;;;5126862;28;20036;-79
2022/04/30 02:53:42;;;;;;;14.32;10.98;;;5.70;99.90;;;;;;5119519;28;20040;-79
2022/04/30 02:56:10;;;;;;;14.52;11.10;;;5.70;99.90;;;;;;5100165;28;20055;-79
2022/04/30 03:01:20;;;;;;;17.05;11.95;;;5.60;99.90;;;;;;5110334;28;20075;-79
2022/04/30 03:03:49;;;;;;;15.60;11.23;;;5.50;99.90;;;;;;5107627;27;20043;-79
2022/04/30 03:06:17;;;;;;;17.83;12.75;;;5.50;99.90;;;;;;5089443;28;20040;-79
2022/04/30 03:08:47;;;;;;;17.60;12.43;;;5.50;99.90;;;;;;5093839;28;20059;-79
2022/04/30 03:11:13;;;;;;;17.27;12.32;;;5.50;99.90;;;;;;5089182;28;20040;-79
2022/04/30 03:13:39;;;;;;;16.90;11.70;;;5.40;99.90;;;;;;5102852;27;20036;-79
2022/04/30 03:21:44;;;;;;;17.70;13.02;;;5.50;99.90;;;;;;5106377;27;20471;-79
2022/04/30 03:24:16;;;;;;;18.70;12.73;;;5.50;99.90;;;;;;5093542;27;20445;-79
2022/04/30 03:26:43;;;;;;;17.08;12.73;;;5.50;99.90;;;;;;5102807;28;20562;-79
2022/04/30 03:29:10;;;;;;;17.35;13.38;;;5.50;99.90;;;;;;5104105;28;20467;-79
2022/04/30 03:31:39;;;;;;;17.92;13.98;;;5.50;99.90;;;;;;5098022;28;20044;-79
2022/04/30 03:34:08;;;;;;;18.60;12.60;;;5.50;99.90;;;;;;5106145;27;20054;-79
2022/04/30 03:36:34;;;;;;;16.52;13.02;;;5.50;99.90;;;;;;5099317;28;20495;-79
2022/04/30 03:39:00;;;;;;;17.52;12.68;;;5.50;99.90;;;;;;5117319;27;20047;-79
2022/04/30 03:41:25;;;;;;;18.92;13.27;;;5.40;99.90;;;;;;5104315;27;20480;-79
2022/04/30 03:43:51;;;;;;;18.27;12.80;;;5.50;99.90;;;;;;5090561;28;20044;-79
2022/04/30 03:46:17;;;;;;;16.38;12.88;;;5.40;99.90;;;;;;5088476;28;20044;-79
2022/04/30 03:48:44;;;;;;;17.35;12.07;;;5.40;99.90;;;;;;5090017;28;20509;-79
2022/04/30 03:51:13;;;;;;;15.60;12.38;;;5.40;99.90;;;;;;5087023;28;20079;-79
2022/04/30 03:53:39;;;;;;;18.05;11.82;;;5.30;99.90;;;;;;5098315;27;20445;-79
2022/04/30 03:56:05;;;;;;;17.70;12.77;;;5.20;99.90;;;;;;5101162;28;20035;-78
2022/04/30 03:58:32;;;;;;;17.75;13.50;;;5.20;99.90;;;;;;5104374;28;20448;-79
2022/04/30 04:00:57;;;;;;;18.43;13.03;;;5.20;99.90;;;;;;5104804;28;20891;-79
2022/04/30 04:03:23;;;;;;;16.90;12.45;;;5.20;99.90;;;;;;5095649;28;20072;-79
2022/04/30 04:05:49;;;;;;;17.13;13.05;;;5.20;99.90;;;;;;5090347;28;20031;-79
2022/04/30 04:08:16;;;;;;;16.45;12.80;;;5.20;99.90;;;;;;5100643;28;20135;-79
2022/04/30 04:10:41;;;;;;;16.05;12.68;;;5.20;99.90;;;;;;5106032;28;20040;-79
2022/04/30 04:18:37;;;;;;;16.63;13.02;;;5.20;99.90;;;;;;5095645;28;20055;-79
2022/04/30 04:21:02;;;;;;;17.63;12.88;;;5.30;99.90;;;;;;5096829;28;20084;-79
2022/04/30 04:23:28;;;;;;;17.23;12.85;;;5.30;99.90;;;;;;5097470;28;20116;-79
2022/04/30 04:26:00;;;;;;;16.73;12.90;;;5.30;99.90;;;;;;5085881;28;20200;-79
2022/04/30 04:28:27;;;;;;;17.75;13.63;;;5.30;99.90;;;;;;5098176;28;20036;-79
2022/04/30 04:30:52;;;;;;;16.48;13.00;;;5.40;99.90;;;;;;5107994;27;20127;-78
2022/04/30 04:33:18;;;;;;;18.05;12.77;;;5.40;99.90;;;;;;5109501;27;20507;-78
2022/04/30 04:35:44;;;;;;;16.95;13.15;;;5.40;99.90;;;;;;5098288;28;20036;-78
2022/04/30 04:38:09;;;;;;;20.80;13.35;;;5.40;99.90;;;;;;5105020;28;20051;-78
2022/04/30 04:40:35;;;;;;;18.67;13.82;;;5.50;99.90;;;;;;5098199;28;20058;-78
2022/04/30 04:43:01;;;;;;;18.10;13.27;;;5.60;99.90;;;;;;5091386;28;20048;-78
2022/04/30 04:45:27;;;;;;;17.42;12.60;;;5.60;99.90;;;;;;5095612;27;20475;-78
2022/04/30 04:47:52;;;;;;;17.80;12.88;;;5.70;99.90;;;;;;5091158;28;20043;-78
2022/04/30 04:50:19;;;;;;;19.17;13.10;;;5.70;99.90;;;;;;5103704;28;20482;-79
2022/04/30 04:52:46;;;;;;;20.10;13.52;;;5.70;99.90;;;;;;5106371;27;20144;-78
2022/04/30 04:55:12;;;;;;;18.98;13.55;;;5.80;99.90;;;;;;5096830;27;20036;-78
2022/04/30 04:57:38;;;;;;;18.73;12.95;;;5.80;99.90;;;;;;5097858;28;20302;-78
2022/04/30 05:00:06;;;;;;;18.42;13.65;;;5.90;99.90;;;;;;5099297;27;20115;-78
2022/04/30 05:02:32;;;;;;;17.02;13.60;;;5.90;99.90;;;;;;5110545;28;20055;-78
2022/04/30 05:04:57;;;;;;;16.67;13.18;;;6.00;99.90;;;;;;5108562;27;20063;-79
2022/04/30 05:07:25;;;;;;;19.77;13.85;;;6.10;99.90;;;;;;5096062;27;20128;-79
2022/04/30 05:09:51;;;;;;;17.92;13.38;;;6.20;99.90;;;;;;5109896;27;20054;-78
2022/04/30 05:12:16;;;;;;;18.90;12.98;;;6.30;99.90;;;;;;5104822;28;20039;-79
2022/04/30 05:14:46;;;;;;;18.98;13.05;;;6.40;99.90;;;;;;5089933;27;20051;-78
2022/04/30 05:17:13;;;;;;;19.83;13.95;;;6.40;99.90;;;;;;5100263;28;20055;-78
2022/04/30 05:19:39;;;;;;;19.55;13.30;;;6.50;99.90;;;;;;5101652;28;20111;-79
2022/04/30 05:22:04;;;;;;;17.40;13.77;;;6.60;99.90;;;;;;5100195;27;20490;-78
2022/04/30 05:24:30;;;;;;;21.38;13.73;;;6.70;99.90;;;;;;5105092;28;20036;-78
2022/04/30 05:26:56;;;;;;;19.25;12.73;;;6.80;99.90;;;;;;5109526;28;20193;-78
2022/04/30 05:29:21;;;;;;;18.17;13.60;;;6.80;99.90;;;;;;5095007;27;20499;-78
2022/04/30 05:31:47;;;;;;;16.73;12.77;;;6.90;99.90;;;;;;5098614;28;20613;-79
2022/04/30 05:34:13;;;;;;;18.88;13.32;;;7.00;99.90;;;;;;5089121;28;20044;-78
2022/04/30 05:36:38;;;;;;;18.52;14.45;;;7.00;99.90;;;;;;5101287;28;20044;-76
2022/04/30 05:39:05;;;;;;;17.95;12.90;;;7.10;99.90;;;;;;5093068;27;20054;-79
2022/04/30 05:41:30;;;;;;;17.00;12.43;;;7.10;99.90;;;;;;5095720;28;20043;-79
2022/04/30 05:43:56;;;;;;;19.10;12.82;;;7.20;99.90;;;;;;5111946;27;20032;-79
2022/04/30 05:46:22;;;;;;;17.20;11.38;;;7.30;99.90;;;;;;5105410;28;20521;-79
2022/04/30 05:48:48;;;;;;;15.52;11.60;;;7.40;99.90;;;;;;5103267;27;20056;-80
2022/04/30 05:51:13;;;;;;;18.77;11.32;;;7.40;99.90;;;;;;5096584;27;20532;-79
2022/04/30 05:53:39;;;;;;;15.07;10.63;;;7.50;99.90;;;;;;5090506;28;20083;-79
2022/04/30 05:56:06;;;;;;;14.82;11.30;;;7.50;99.90;;;;;;5097255;27;20148;-80
2022/04/30 05:58:32;;;;;;;15.07;10.65;;;7.50;99.90;;;;;;5093345;28;20047;-79
2022/04/30 06:00:57;;;;;;;14.25;10.80;;;7.60;99.90;;;;;;5092247;27;20040;-74
2022/04/30 06:03:23;;;;;;;13.80;10.23;;;7.60;99.90;;;;;;5099728;28;20478;-78
2022/04/30 06:05:49;;;;;;;15.20;10.27;;;7.70;99.90;;;;;;5111103;28;20487;-78
2022/04/30 06:08:14;;;;;;;14.00;10.20;;;7.70;99.90;;;;;;5092384;27;20044;-78
2022/04/30 06:10:40;;;;;;;14.15;10.63;;;7.80;99.90;;;;;;5102303;28;20151;-77
2022/04/30 06:13:06;;;;;;;15.88;11.05;;;7.90;99.90;;;;;;5092175;28;20475;-78
2022/04/30 06:15:32;;;;;;;14.40;10.07;;;8.00;99.90;;;;;;5105255;27;20039;-78
2022/04/30 06:17:57;;;;;;;13.13;10.02;;;8.10;99.90;;;;;;5105765;28;20092;-78
2022/04/30 06:20:23;;;;;;;13.18;9.80;;;8.20;99.90;;;;;;5100515;28;20445;-78
2022/04/30 06:22:49;;;;;;;12.15;10.27;;;8.30;99.90;;;;;;5097863;27;20114;-78
2022/04/30 06:25:14;;;;;;;12.85;9.80;;;8.40;99.90;;;;;;5088626;27;20050;-78
2022/04/30 06:27:40;;;;;;;11.68;9.18;;;8.40;99.90;;;;;;5090624;27;20052;-78
2022/04/30 06:30:07;;;;;;;13.30;9.32;;;8.50;99.90;;;;;;5092107;27;20352;-78
2022/04/30 06:32:34;;;;;;;11.55;9.38;;;8.60;99.90;;;;;;5089187;28;20051;-78
2022/04/30 06:35:00;;;;;;;13.90;9.27;;;8.60;99.90;;;;;;5104146;28;20040;-78
2022/04/30 06:37:25;;;;;;;13.25;9.13;;;8.60;99.90;;;;;;5109414;28;20087;-78
2022/04/30 06:39:51;;;;;;;13.30;8.50;;;8.70;99.90;;;;;;5109337;28;20127;-78
2022/04/30 06:42:17;;;;;;;13.93;9.80;;;8.70;99.90;;;;;;5089937;28;20529;-77
2022/04/30 06:44:43;;;;;;;12.90;9.57;;;8.70;99.90;;;;;;5095221;27;20079;-77
2022/04/30 06:47:09;;;;;;;11.43;8.90;;;8.70;99.90;;;;;;5088142;28;20550;-78
2022/04/30 06:49:35;;;;;;;10.68;9.07;;;8.70;99.90;;;;;;5095848;27;20044;-78
2022/04/30 06:52:01;;;;;;;14.15;8.90;;;8.80;99.90;;;;;;5088721;27;20537;-78
2022/04/30 06:57:11;;;;;;;11.00;8.25;;;8.80;99.90;;;;;;5091923;27;20044;-75
2022/04/30 06:59:41;;;;;;;12.35;8.20;;;8.80;99.90;;;;;;5092217;28;20088;-78
2022/04/30 07:02:18;;;;;;;13.82;8.32;;;8.90;99.90;;;;;;5094110;28;20525;-77
2022/04/30 07:04:48;;;;;;;14.02;8.10;;;9.00;99.90;;;;;;5098223;27;20070;-79
2022/04/30 07:07:15;;;;;;;11.75;6.85;;;9.00;99.90;;;;;;5089785;27;20056;-77
2022/04/30 07:09:41;;;;;;;10.68;6.30;;;9.10;99.90;;;;;;5104189;27;20074;-76
2022/04/30 07:12:09;;;;;;;9.98;6.65;;;9.20;99.90;;;;;;5106539;28;20048;-78
2022/04/30 07:14:40;;;;;;;12.00;6.50;;;9.20;99.90;;;;;;5106726;27;20041;-76
2022/04/30 07:17:07;;;;;;;9.60;5.65;;;9.30;99.90;;;;;;5104354;28;20502;-76
2022/04/30 07:19:33;;;;;;;8.15;5.82;;;9.40;99.90;;;;;;5115264;27;20036;-76
2022/04/30 07:21:59;;;;;;;11.88;6.85;;;9.60;99.90;;;;;;5123009;27;20055;-77
2022/04/30 07:24:24;;;;;;;10.20;6.57;;;9.70;99.90;;;;;;5093756;28;20043;-76
2022/04/30 07:26:50;;;;;;;11.82;6.57;;;9.80;99.90;;;;;;5088474;28;20079;-77
2022/04/30 07:29:16;;;;;;;11.20;6.32;;;10.00;99.90;;;;;;5101255;28;20071;-79
2022/04/30 07:31:42;;;;;;;9.30;5.78;;;10.20;99.90;;;;;;5104244;28;20438;-77
2022/04/30 07:34:10;;;;;;;10.20;5.47;;;10.20;99.90;;;;;;5094941;28;20048;-76
2022/04/30 07:36:36;;;;;;;;;;;10.30;99.90;;;;;;5093687;28;20109;-77
2022/04/30 07:39:02;;;;;;;10.75;5.90;;;10.40;99.90;;;;;;5100466;28;19924;-78
2022/04/30 07:41:27;;;;;;;12.15;6.28;;;10.40;99.90;;;;;;5107928;28;20046;-75
2022/04/30 07:43:53;;;;;;;11.05;6.40;;;10.50;99.90;;;;;;5097315;28;20492;-77
2022/04/30 07:46:18;;;;;;;10.20;6.22;;;10.50;99.90;;;;;;5090799;28;20043;-76
2022/04/30 07:48:44;;;;;;;9.18;5.97;;;10.60;99.90;;;;;;5104329;28;20133;-75
2022/04/30 07:51:14;;;;;;;11.50;6.20;;;10.70;99.90;;;;;;5099489;28;20038;-76
2022/04/30 07:53:41;;;;;;;8.10;6.60;;;10.70;99.90;;;;;;5096746;28;20487;-77
2022/04/30 07:56:10;;;;;;;9.00;6.32;;;10.70;99.90;;;;;;5101066;28;20036;-77
2022/04/30 07:58:36;;;;;;;10.63;5.95;;;10.80;99.90;;;;;;5093673;28;20402;-77
2022/04/30 08:01:02;;;;;;;7.72;5.25;;;10.80;99.90;;;;;;5095966;28;20763;-77
2022/04/30 08:03:28;;;;;;;12.20;6.30;;;10.80;99.90;;;;;;5103559;27;20043;-75
2022/04/30 08:05:53;;;;;;;8.52;5.68;;;10.80;99.90;;;;;;5109505;27;20046;-75
2022/04/30 08:08:19;;;;;;;9.43;5.35;;;10.90;99.90;;;;;;5106720;27;20398;-77
2022/04/30 08:10:45;;;;;;;10.05;4.82;;;10.90;99.90;;;;;;5097840;27;20063;-78
2022/04/30 08:13:11;;;;;;;8.98;4.70;;;10.90;99.90;;;;;;5112076;28;20040;-77
2022/04/30 08:15:43;;;;;;;7.65;4.97;;;10.90;99.90;;;;;;5107727;28;20047;-77
2022/04/30 08:18:10;;;;;;;8.00;4.95;;;11.00;99.90;;;;;;5101062;28;20087;-77
2022/04/30 08:20:37;;;;;;;10.50;4.15;;;11.00;99.90;;;;;;5106883;28;20539;-77
2022/04/30 08:23:06;;;;;;;;;;;11.10;99.90;;;;;;5098074;27;20039;-74
2022/04/30 08:25:34;;;;;;;7.75;4.38;;;11.10;99.90;;;;;;5111665;28;20370;-75
2022/04/30 08:28:01;;;;;;;8.48;4.72;;;11.10;99.90;;;;;;5111036;28;20052;-74
2022/04/30 08:30:29;;;;;;;6.82;4.47;;;11.20;99.90;;;;;;5110674;28;20036;-74
2022/04/30 08:32:55;;;;;;;7.78;4.45;;;11.20;99.90;;;;;;5111170;27;20495;-74
2022/04/30 08:35:21;;;;;;;9.18;4.68;;;11.30;99.90;;;;;;5111024;28;20039;-75
2022/04/30 08:37:46;;;;;;;10.65;5.30;;;11.30;99.90;;;;;;5111016;28;20046;-77
2022/04/30 08:40:32;;;;;;;10.75;4.80;;;11.30;99.90;;;;;;5112186;28;20085;-76
2022/04/30 08:43:13;;;;;;;7.38;4.28;;;11.30;99.90;;;;;;5095881;27;20063;-77
2022/04/30 08:45:40;;;;;;;6.32;3.63;;;11.40;99.90;;;;;;5108742;27;20822;-76
2022/04/30 08:48:10;;;;;;;7.75;4.28;;;11.50;99.90;;;;;;5112217;28;20055;-77
2022/04/30 08:50:37;;;;;;;8.70;4.78;;;11.60;99.90;;;;;;5103063;27;20089;-77
2022/04/30 08:53:04;;;;;;;8.02;4.55;;;11.70;99.90;;;;;;5104555;27;20170;-76
2022/04/30 08:55:29;;;;;;;7.63;4.78;;;11.80;99.90;;;;;;5088548;28;20047;-75
2022/04/30 08:57:55;;;;;;;8.48;4.45;;;11.90;99.90;;;;;;5093418;27;20047;-76
2022/04/30 09:00:21;;;;;;;7.68;5.00;;;12.00;99.90;;;;;;5088201;27;20543;-76
2022/04/30 09:02:53;;;;;;;8.68;4.93;;;12.10;99.90;;;;;;5084740;28;20048;-76
2022/04/30 09:05:20;;;;;;;7.90;4.95;;;12.20;99.90;;;;;;5103651;27;20047;-76
2022/04/30 09:07:56;;;;;;;7.80;5.22;;;12.30;99.90;;;;;;5103283;28;20039;-76
2022/04/30 09:10:24;;;;;;;9.02;4.78;;;12.40;99.90;;;;;;5104019;27;20530;-76
2022/04/30 09:12:51;;;;;;;6.65;4.38;;;12.50;99.90;;;;;;5088359;28;20051;-76
2022/04/30 09:15:17;;;;;;;;;;;12.60;99.90;;;;;;5084210;28;20127;-76
2022/04/30 09:17:56;;;;;;;5.93;4.03;;;12.50;99.90;;;;;;5093000;27;19920;-78
2022/04/30 09:20:22;;;;;;;8.63;5.20;;;12.40;99.90;;;;;;5102515;28;20083;-78
2022/04/30 09:22:48;;;;;;;6.85;5.28;;;12.30;99.90;;;;;;5104522;28;20665;-78
2022/04/30 09:25:15;;;;;;;8.35;5.32;;;12.30;99.90;;;;;;5085047;28;20040;-79
2022/04/30 09:27:45;;;;;;;12.32;6.38;;;12.20;99.90;;;;;;5082554;28;20044;-78
2022/04/30 09:30:26;;;;;;;10.50;6.13;;;12.20;99.90;;;;;;5081760;28;20160;-79
2022/04/30 09:33:06;;;;;;;13.35;6.60;;;12.10;99.90;;;;;;5084155;27;20375;-79
2022/04/30 09:38:17;;;;;;;11.40;6.35;;;12.00;99.90;;;;;;5104554;28;20741;-79
2022/04/30 09:40:53;;;;;;;9.52;6.15;;;12.00;99.90;;;;;;5104967;28;20248;-79
2022/04/30 09:43:18;;;;;;;11.40;6.22;;;12.00;99.90;;;;;;5111252;28;20076;-78
2022/04/30 09:45:44;;;;;;;9.23;5.68;;;12.00;99.90;;;;;;5109913;28;20044;-77
2022/04/30 09:53:58;;;;;;;10.52;5.60;;;12.10;99.90;;;;;;5099053;27;20043;-77
2022/04/30 09:56:38;;;;;;;12.20;6.40;;;12.10;99.90;;;;;;5096512;27;20058;-77
2022/04/30 09:59:06;;;;;;;7.75;5.05;;;12.20;99.90;;;;;;5105963;27;20552;-77
2022/04/30 10:01:37;;;;;;;8.15;5.00;;;12.30;99.90;;;;;;5094704;27;20051;-78
2022/04/30 10:04:11;;;;;;;10.23;5.07;;;12.30;99.90;;;;;;5107118;27;20040;-75
2022/04/30 10:06:44;;;;;;;8.45;4.47;;;12.40;99.90;;;;;;5104450;27;20048;-75
2022/04/30 10:09:13;;;;;;;8.55;5.22;;;12.40;99.90;;;;;;5111341;28;20053;-79
2022/04/30 10:12:00;;;;;;;8.23;5.05;;;12.50;99.90;;;;;;5111658;28;20059;-80
2022/04/30 10:14:43;;;;;;;8.70;5.70;;;12.60;99.90;;;;;;5107838;27;20494;-77
2022/04/30 10:17:23;;;;;;;7.93;4.85;;;12.70;99.90;;;;;;5105690;28;20052;-77
2022/04/30 10:19:59;;;;;;;8.27;4.70;;;12.70;99.90;;;;;;5109792;27;20036;-78
2022/04/30 10:22:26;;;;;;;7.32;5.10;;;12.80;99.90;;;;;;5105585;27;20046;-77
2022/04/30 10:24:57;;;;;;;7.65;4.32;;;12.70;99.90;;;;;;5094210;28;20090;-76
2022/04/30 10:27:24;;;;;;;9.10;4.97;;;12.80;99.90;;;;;;5091986;28;20126;-82
2022/04/30 10:29:59;;;;;;;8.90;5.22;;;12.80;99.90;;;;;;5108314;28;20131;-78
2022/04/30 10:32:31;;;;;;;5.22;3.58;;;12.90;99.90;;;;;;5104074;27;20047;-77
2022/04/30 10:34:56;;;;;;;6.93;4.20;;;13.00;99.30;;;;;;5109906;28;20046;-74
2022/04/30 10:37:34;;;;;;;6.90;4.30;;;13.10;99.90;;;;;;5106173;27;20047;-77
2022/04/30 10:40:01;;;;;;;7.18;3.97;;;13.20;98.60;;;;;;5103845;27;20059;-73
2022/04/30 10:42:27;;;;;;;;;;;13.30;97.30;;;;;;5106197;28;20078;-77
2022/04/30 10:44:57;;;;;;;5.47;3.40;;;13.20;94.80;;;;;;5104913;28;20329;-76
2022/04/30 10:47:22;;;;;;;8.73;3.83;;;13.30;97.00;;;;;;5106674;28;20143;-77
2022/04/30 10:49:49;;;;;;;5.15;3.70;;;13.40;94.40;;;;;;5110564;28;20444;-76
2022/04/30 10:52:22;;;;;;;5.97;3.60;;;13.40;94.60;;;;;;5102577;27;20047;-80
2022/04/30 10:54:50;;;;;;;6.40;4.28;;;13.50;92.50;;;;;;5094967;27;20562;-81
2022/04/30 10:57:19;;;;;;;5.85;4.38;;;13.60;91.20;;;;;;5090310;27;20078;-82
2022/04/30 10:59:58;;;;;;;6.93;4.10;;;13.60;94.80;;;;;;5097386;28;20027;-76
2022/04/30 11:02:30;;;;;;;6.78;4.20;;;13.70;94.00;;;;;;5103126;27;20039;-75
2022/04/30 11:05:01;;;;;;;7.07;4.03;;;13.70;91.10;;;;;;5106603;28;20574;-78
2022/04/30 11:07:28;;;;;;;6.38;4.20;;;13.80;87.60;;;;;;5093118;28;20115;-77
2022/04/30 11:09:55;;;;;;;8.05;4.22;;;13.70;86.30;;;;;;5102899;28;20052;-78
2022/04/30 11:12:21;;;;;;;6.80;4.45;;;13.60;85.30;;;;;;5090687;27;20048;-79
2022/04/30 11:14:47;;;;;;;7.05;4.57;;;13.50;87.30;;;;;;5089065;28;20170;-76
2022/04/30 11:17:13;;;;;;;7.10;4.50;;;13.40;92.80;;;;;;5108899;28;20047;-77
2022/04/30 11:19:41;;;;;;;8.98;5.18;;;13.30;92.30;;;;;;5100728;28;20047;-76
2022/04/30 11:22:09;;;;;;;6.28;4.88;;;13.20;93.60;;;;;;5116867;28;20062;-76
2022/04/30 11:24:37;;;;;;;6.53;4.65;;;13.10;95.20;;;;;;5108545;28;20484;-76
2022/04/30 11:27:05;;;;;;;7.22;5.18;;;13.00;94.60;;;;;;5101241;28;20065;-76
2022/04/30 11:29:52;;;;;;;9.65;4.97;;;12.90;95.10;;;;;;5089823;28;20131;-76
2022/04/30 11:32:22;;;;;;;8.73;5.03;;;12.80;96.10;;;;;;5087609;28;20056;-77
2022/04/30 11:34:49;;;;;;;7.18;4.82;;;12.80;95.40;;;;;;5107369;27;20122;-77
2022/04/30 11:37:15;;;;;;;7.60;4.57;;;12.70;95.70;;;;;;5107846;28;20625;-77
2022/04/30 11:39:40;;;;;;;6.60;4.50;;;12.70;96.50;;;;;;5108073;28;20134;-77
2022/04/30 11:42:06;;;;;;;6.75;4.65;;;12.70;96.50;;;;;;5109956;28;20130;-77
2022/04/30 11:44:32;;;;;;;8.80;5.10;;;12.70;97.00;;;;;;5109729;28;20035;-77
2022/04/30 11:46:58;;;;;;;5.90;4.68;;;12.70;95.70;;;;;;5107289;28;20409;-76
2022/04/30 11:49:26;;;;;;;8.27;5.00;;;12.70;94.30;;;;;;5106793;28;20151;-77
2022/04/30 11:51:57;;;;;;;;;;;12.80;94.70;;;;;;5110314;28;20978;-77
2022/04/30 11:54:25;;;;;;;7.22;4.80;;;12.80;95.40;;;;;;5108814;28;19927;-77
2022/04/30 11:56:51;;;;;;;;;;;12.80;95.60;;;;;;5110236;28;20070;-77
2022/04/30 11:59:27;;;;;;;5.95;4.30;;;12.90;97.30;;;;;;5107483;28;20005;-77
2022/04/30 12:01:53;;;;;;;8.40;4.37;;;12.90;94.00;;;;;;5106349;28;20036;-77
2022/04/30 12:04:21;;;;;;;5.55;4.50;;;12.90;93.00;;;;;;5108713;28;20599;-77
2022/04/30 12:07:01;;;;;;;6.68;4.60;;;12.90;90.50;;;;;;5109728;28;20135;-77
2022/04/30 12:09:33;;;;;;;6.78;4.82;;;13.00;92.70;;;;;;5107386;28;20467;-77
2022/04/30 12:12:00;;;;;;;6.63;4.40;;;13.00;93.20;;;;;;5105681;28;20521;-77
2022/04/30 12:14:26;;;;;;;7.55;5.18;;;13.10;94.50;;;;;;5098531;28;20057;-77
2022/04/30 12:16:53;;;;;;;8.02;4.72;;;13.20;94.40;;;;;;5105126;28;20040;-77
2022/04/30 12:25:20;;;;;;;6.45;4.40;;;13.40;85.40;;;;;;5099277;28;20044;-83
2022/04/30 12:27:58;;;;;;;7.80;4.72;;;13.30;84.20;;;;;;5106479;28;20043;-81
2022/04/30 12:30:24;;;;;;;7.50;5.10;;;13.50;83.80;;;;;;5092727;28;20047;-80
2022/04/30 12:32:51;;;;;;;5.53;4.70;;;13.50;83.80;;;;;;5108535;28;20043;-81
2022/04/30 12:35:28;;;;;;;7.20;4.53;;;13.50;89.00;;;;;;5096715;28;20032;-81
2022/04/30 12:38:16;;;;;;;7.28;4.70;;;13.50;83.20;;;;;;5108027;28;20044;-81
2022/04/30 12:40:44;;;;;;;6.50;4.20;;;13.50;84.40;;;;;;5108008;28;20083;-81
2022/04/30 12:43:11;;;;;;;8.57;4.70;;;13.50;83.30;;;;;;5107384;28;20036;-81
2022/04/30 12:45:37;;;;;;;7.97;4.55;;;13.50;85.10;;;;;;5109363;28;20163;-80
2022/04/30 12:48:04;;;;;;;6.80;4.47;;;13.50;85.70;;;;;;5108914;28;20491;-81
2022/04/30 12:50:32;;;;;;;6.78;4.70;;;13.50;79.80;;;;;;5107579;28;20078;-81
2022/04/30 12:52:59;;;;;;;7.05;4.85;;;13.50;83.10;;;;;;5111421;28;20046;-81
2022/04/30 12:55:25;;;;;;;7.70;4.67;;;13.40;84.60;;;;;;5111366;28;20165;-81
2022/04/30 12:57:50;;;;;;;8.25;4.50;;;13.40;83.70;;;;;;5110987;28;20127;-81
2022/04/30 13:00:17;;;;;;;8.32;5.03;;;13.30;83.10;;;;;;5111092;28;20126;-81
2022/04/30 13:02:44;;;;;;;8.07;4.68;;;13.30;85.50;;;;;;5110516;28;20048;-76
2022/04/30 13:05:12;;;;;;;7.78;4.97;;;13.20;87.10;;;;;;5097571;27;20046;-76
2022/04/30 13:07:42;;;;;;;8.93;5.00;;;13.10;85.50;;;;;;5100329;27;20431;-78
2022/04/30 13:15:38;;;;;;;6.30;4.00;;;12.90;86.50;;;;;;5109778;27;20126;-78
2022/04/30 13:18:07;;;;;;;6.47;4.32;;;12.80;82.10;;;;;;5103965;27;20042;-74
2022/04/30 13:20:34;;;;;;;5.18;3.92;;;12.80;83.00;;;;;;5111507;28;20452;-78
2022/04/30 13:23:00;;;;;;;6.13;4.07;;;12.70;85.20;;;;;;5109198;28;20110;-77
2022/04/30 13:25:28;;;;;;;5.75;3.90;;;12.70;87.10;;;;;;5101707;27;20128;-78
2022/04/30 13:27:55;;;;;;;6.25;4.10;;;12.70;87.50;;;;;;5099285;28;20169;-77